Time;durP1;ratioP1;P1;durP2;ratioP2;P2;SDS_P1;SDS_P2;PMS_P1;PMS_P2;Temp;Humidity;BMP_temperature;BMP_pressure;BME280_temperature;BME280_humidity;BME280_pressure;Samples;Min_cycle;Max_cycle;Signal;HPM_P1;HPM_P2
2021/12/09 00:01:00;;;;;;;31.30;14.77;;;;;;;;;;4935090;29;20034;-71
2021/12/09 00:03:28;;;;;;;37.43;15.57;;;;;;;;;;4932514;29;20040;-73
2021/12/09 00:05:56;;;;;;;33.30;14.30;;;;;;;;;;4934394;29;20023;-72
2021/12/09 00:08:24;;;;;;;35.40;15.30;;;;;;;;;;4932840;29;20031;-72
2021/12/09 00:10:49;;;;;;;31.60;14.47;;;;;;;;;;4933154;29;20091;-72
2021/12/09 00:13:15;;;;;;;35.23;14.53;;;;;;;;;;4934260;29;20036;-71
2021/12/09 00:15:40;;;;;;;39.97;15.67;;;;;;;;;;4934296;29;20035;-72
2021/12/09 00:18:06;;;;;;;34.10;14.70;;;;;;;;;;4932721;29;20032;-72
2021/12/09 00:20:31;;;;;;;35.50;14.83;;;;;;;;;;4932340;29;20031;-73
2021/12/09 00:22:57;;;;;;;29.03;14.30;;;;;;;;;;4933983;29;20465;-71
2021/12/09 00:25:23;;;;;;;40.60;15.63;;;;;;;;;;4932404;29;20031;-71
2021/12/09 00:27:51;;;;;;;35.30;14.70;;;;;;;;;;4933771;29;20027;-73
2021/12/09 00:30:17;;;;;;;29.90;14.63;;;;;;;;;;4934046;29;20032;-71
2021/12/09 00:32:43;;;;;;;32.60;15.27;;;;;;;;;;4932240;29;20034;-71
2021/12/09 00:35:13;;;;;;;30.63;13.57;;;;;;;;;;4933921;29;20187;-72
2021/12/09 00:37:50;;;;;;;36.60;14.33;;;;;;;;;;4933521;29;20028;-71
2021/12/09 00:40:15;;;;;;;37.97;16.33;;;;;;;;;;4932471;29;20135;-75
2021/12/09 00:42:41;;;;;;;34.13;15.20;;;;;;;;;;4933964;29;20039;-71
2021/12/09 00:45:07;;;;;;;35.10;14.90;;;;;;;;;;4933744;29;20472;-71
2021/12/09 00:47:33;;;;;;;38.80;15.90;;;;;;;;;;4932204;29;20024;-71
2021/12/09 00:49:58;;;;;;;33.97;14.80;;;;;;;;;;4931408;29;20046;-71
2021/12/09 00:52:25;;;;;;;35.37;16.63;;;;;;;;;;4932216;29;20028;-71
2021/12/09 00:54:52;;;;;;;36.37;14.93;;;;;;;;;;4932702;29;20028;-73
2021/12/09 00:57:18;;;;;;;38.27;15.80;;;;;;;;;;4933655;29;20051;-72
2021/12/09 00:59:44;;;;;;;39.00;16.33;;;;;;;;;;4933506;29;20031;-73
2021/12/09 01:02:11;;;;;;;35.27;16.40;;;;;;;;;;4932081;29;20058;-73
2021/12/09 01:04:38;;;;;;;34.00;14.73;;;;;;;;;;4933132;29;20032;-71
2021/12/09 01:07:05;;;;;;;38.87;15.03;;;;;;;;;;4933401;29;20043;-71
2021/12/09 01:09:32;;;;;;;33.60;14.90;;;;;;;;;;4931676;29;20111;-71
2021/12/09 01:11:58;;;;;;;34.80;15.00;;;;;;;;;;4933162;29;20036;-70
2021/12/09 01:14:24;;;;;;;32.97;15.30;;;;;;;;;;4931447;29;20039;-73
2021/12/09 01:16:50;;;;;;;37.30;15.97;;;;;;;;;;4932923;29;20027;-72
2021/12/09 01:19:17;;;;;;;35.03;16.13;;;;;;;;;;4933305;29;20082;-71
2021/12/09 01:21:42;;;;;;;35.60;16.07;;;;;;;;;;4931970;29;20031;-71
2021/12/09 01:24:08;;;;;;;31.10;14.47;;;;;;;;;;4933315;29;20396;-71
2021/12/09 01:26:34;;;;;;;34.20;14.93;;;;;;;;;;4931493;29;20028;-71
2021/12/09 01:29:05;;;;;;;37.67;15.93;;;;;;;;;;4931573;29;20035;-73
2021/12/09 01:31:35;;;;;;;39.13;14.67;;;;;;;;;;4931412;29;20038;-72
2021/12/09 01:34:03;;;;;;;33.93;15.97;;;;;;;;;;4931667;29;20480;-71
2021/12/09 01:36:32;;;;;;;37.50;15.67;;;;;;;;;;4931374;29;20048;-73
2021/12/09 01:38:59;;;;;;;36.50;14.30;;;;;;;;;;4931549;29;20455;-71
2021/12/09 01:41:24;;;;;;;44.40;17.23;;;;;;;;;;4932827;29;20054;-71
2021/12/09 01:43:50;;;;;;;39.87;16.07;;;;;;;;;;4932498;29;20472;-72
2021/12/09 01:46:20;;;;;;;37.67;17.30;;;;;;;;;;4931546;29;20146;-71
2021/12/09 01:48:47;;;;;;;34.27;15.20;;;;;;;;;;4931379;29;20428;-71
2021/12/09 01:51:13;;;;;;;35.80;16.30;;;;;;;;;;4931484;29;20404;-72
2021/12/09 01:53:40;;;;;;;36.10;15.93;;;;;;;;;;4931001;29;20080;-72
2021/12/09 01:56:10;;;;;;;36.37;15.60;;;;;;;;;;4931163;29;20031;-72
2021/12/09 01:58:36;;;;;;;36.70;16.10;;;;;;;;;;4930835;29;20040;-73
2021/12/09 02:01:03;;;;;;;36.63;15.70;;;;;;;;;;4931935;29;20035;-72
2021/12/09 02:03:29;;;;;;;36.53;16.00;;;;;;;;;;4930463;29;20047;-71
2021/12/09 02:05:55;;;;;;;37.30;16.87;;;;;;;;;;4932285;29;20039;-72
2021/12/09 02:08:21;;;;;;;41.83;17.40;;;;;;;;;;4931043;29;20469;-72
2021/12/09 02:10:47;;;;;;;37.60;14.83;;;;;;;;;;4932106;29;20377;-72
2021/12/09 02:13:13;;;;;;;41.43;17.57;;;;;;;;;;4932268;29;20038;-70
2021/12/09 02:15:40;;;;;;;33.00;14.87;;;;;;;;;;4931998;29;20043;-70
2021/12/09 02:18:08;;;;;;;33.73;16.00;;;;;;;;;;4932313;29;20469;-72
2021/12/09 02:20:35;;;;;;;39.83;16.33;;;;;;;;;;4932041;29;20106;-72
2021/12/09 02:23:07;;;;;;;38.73;16.10;;;;;;;;;;4932551;29;20059;-72
2021/12/09 02:25:33;;;;;;;35.33;16.25;;;;;;;;;;4930611;29;20038;-71
2021/12/09 02:27:58;;;;;;;32.97;15.07;;;;;;;;;;4932254;29;20114;-72
2021/12/09 02:30:24;;;;;;;54.20;16.37;;;;;;;;;;4932372;29;20028;-72
2021/12/09 02:32:49;;;;;;;33.20;15.43;;;;;;;;;;4930602;29;20510;-72
2021/12/09 02:35:15;;;;;;;39.50;17.90;;;;;;;;;;4932150;29;20596;-72
2021/12/09 02:37:41;;;;;;;41.77;17.77;;;;;;;;;;4931835;29;20035;-72
2021/12/09 02:40:08;;;;;;;38.93;16.03;;;;;;;;;;4932008;29;20036;-72
2021/12/09 02:42:34;;;;;;;36.83;17.07;;;;;;;;;;4930637;29;20020;-72
2021/12/09 02:45:02;;;;;;;38.80;17.07;;;;;;;;;;4933443;29;20472;-71
2021/12/09 02:47:27;;;;;;;39.30;17.13;;;;;;;;;;4934186;29;20020;-72
2021/12/09 02:49:53;;;;;;;38.53;17.90;;;;;;;;;;4933694;29;20086;-71
2021/12/09 02:52:19;;;;;;;38.70;16.03;;;;;;;;;;4932993;29;20027;-72
2021/12/09 02:54:45;;;;;;;35.37;16.77;;;;;;;;;;4932046;29;20030;-72
2021/12/09 02:57:12;;;;;;;38.37;15.80;;;;;;;;;;4930488;29;20031;-72
2021/12/09 02:59:38;;;;;;;39.03;15.57;;;;;;;;;;4931785;29;20516;-69
2021/12/09 03:02:05;;;;;;;38.27;16.80;;;;;;;;;;4930527;29;20364;-70
2021/12/09 03:04:48;;;;;;;34.67;16.97;;;;;;;;;;4931876;29;20020;-72
2021/12/09 03:07:24;;;;;;;39.60;19.20;;;;;;;;;;4930435;29;20016;-71
2021/12/09 03:09:54;;;;;;;39.77;18.43;;;;;;;;;;4931471;29;20046;-73
2021/12/09 03:12:34;;;;;;;37.83;15.70;;;;;;;;;;4932933;29;20031;-74
2021/12/09 03:15:02;;;;;;;36.03;16.00;;;;;;;;;;4933766;29;20035;-72
2021/12/09 03:17:28;;;;;;;36.93;18.00;;;;;;;;;;4933817;29;20050;-71
2021/12/09 03:19:54;;;;;;;44.57;18.10;;;;;;;;;;4934872;29;20111;-71
2021/12/09 03:22:19;;;;;;;41.10;18.20;;;;;;;;;;4933834;29;20190;-72
2021/12/09 03:24:45;;;;;;;39.53;16.23;;;;;;;;;;4933758;29;20043;-71
2021/12/09 03:27:12;;;;;;;39.67;17.83;;;;;;;;;;4933715;29;20032;-72
2021/12/09 03:29:38;;;;;;;34.90;16.70;;;;;;;;;;4933557;29;20176;-72
2021/12/09 03:32:08;;;;;;;38.20;16.47;;;;;;;;;;4933543;29;20088;-71
2021/12/09 03:34:35;;;;;;;33.50;15.97;;;;;;;;;;4934958;29;20023;-72
2021/12/09 03:37:05;;;;;;;41.50;17.00;;;;;;;;;;4933569;29;20043;-72
2021/12/09 03:39:34;;;;;;;42.70;18.00;;;;;;;;;;4934680;29;20369;-71
2021/12/09 03:42:00;;;;;;;38.93;16.60;;;;;;;;;;4934849;29;20059;-69
2021/12/09 03:44:28;;;;;;;38.00;17.63;;;;;;;;;;4935155;29;20056;-70
2021/12/09 03:46:56;;;;;;;37.63;16.73;;;;;;;;;;4934573;29;20032;-72
2021/12/09 03:49:26;;;;;;;36.33;16.00;;;;;;;;;;4933331;29;20042;-72
2021/12/09 03:51:52;;;;;;;44.97;17.40;;;;;;;;;;4933172;29;20035;-71
2021/12/09 03:54:19;;;;;;;41.43;16.67;;;;;;;;;;4934692;29;20074;-72
2021/12/09 03:56:46;;;;;;;42.23;17.80;;;;;;;;;;4934305;29;20106;-71
2021/12/09 03:59:13;;;;;;;38.57;18.77;;;;;;;;;;4934589;29;20082;-73
2021/12/09 04:01:40;;;;;;;40.17;17.97;;;;;;;;;;4932852;29;20028;-72
2021/12/09 04:04:07;;;;;;;40.47;17.47;;;;;;;;;;4933125;29;20059;-72
2021/12/09 04:06:33;;;;;;;41.23;17.60;;;;;;;;;;4933202;29;20118;-72
2021/12/09 04:09:00;;;;;;;39.13;16.67;;;;;;;;;;4934308;29;20479;-72
2021/12/09 04:11:27;;;;;;;43.20;17.93;;;;;;;;;;4932895;29;20281;-72
2021/12/09 04:13:54;;;;;;;39.80;16.90;;;;;;;;;;4932631;29;20039;-72
2021/12/09 04:16:20;;;;;;;41.70;18.43;;;;;;;;;;4932523;29;20036;-71
2021/12/09 04:18:46;;;;;;;42.57;17.63;;;;;;;;;;4932527;29;20037;-72
2021/12/09 04:21:12;;;;;;;42.00;17.87;;;;;;;;;;4933029;29;20031;-72
2021/12/09 04:23:38;;;;;;;46.63;19.83;;;;;;;;;;4932169;29;20500;-72
2021/12/09 04:26:04;;;;;;;39.67;17.50;;;;;;;;;;4932788;29;20035;-72
2021/12/09 04:28:30;;;;;;;41.37;17.63;;;;;;;;;;4933983;29;20031;-72
2021/12/09 04:30:55;;;;;;;41.50;18.33;;;;;;;;;;4932504;29;20098;-74
2021/12/09 04:33:21;;;;;;;44.03;19.27;;;;;;;;;;4934037;29;20035;-72
2021/12/09 04:35:46;;;;;;;49.00;18.20;;;;;;;;;;4932101;29;20417;-71
2021/12/09 04:38:12;;;;;;;46.50;19.37;;;;;;;;;;4933792;29;20404;-72
2021/12/09 04:40:38;;;;;;;40.87;18.17;;;;;;;;;;4932144;29;20043;-71
2021/12/09 04:43:04;;;;;;;48.97;20.83;;;;;;;;;;4933900;29;20027;-71
2021/12/09 04:45:33;;;;;;;51.10;21.80;;;;;;;;;;4933687;29;20036;-70
2021/12/09 04:47:59;;;;;;;50.17;21.77;;;;;;;;;;4933919;29;20030;-72
2021/12/09 04:50:25;;;;;;;49.17;20.87;;;;;;;;;;4933549;29;20101;-71
2021/12/09 04:52:51;;;;;;;45.20;20.60;;;;;;;;;;4933264;29;20054;-70
2021/12/09 04:55:16;;;;;;;51.80;20.57;;;;;;;;;;4933501;29;20035;-72
2021/12/09 04:57:43;;;;;;;40.77;19.03;;;;;;;;;;4933136;29;20280;-73
2021/12/09 05:00:14;;;;;;;44.50;19.20;;;;;;;;;;4932051;29;20408;-74
2021/12/09 05:05:24;;;;;;;46.63;19.77;;;;;;;;;;4933212;29;20042;-72
2021/12/09 05:07:50;;;;;;;43.90;20.07;;;;;;;;;;4931473;29;20071;-73
2021/12/09 05:10:16;;;;;;;46.63;20.83;;;;;;;;;;4931908;29;20440;-72
2021/12/09 05:12:42;;;;;;;53.17;22.67;;;;;;;;;;4933035;29;20027;-70
2021/12/09 05:15:09;;;;;;;46.40;20.27;;;;;;;;;;4931658;29;20031;-70
2021/12/09 05:17:34;;;;;;;44.20;19.73;;;;;;;;;;4931732;29;20040;-72
2021/12/09 05:20:00;;;;;;;43.67;19.23;;;;;;;;;;4931510;29;20042;-71
2021/12/09 05:22:26;;;;;;;47.63;20.67;;;;;;;;;;4932969;29;20035;-72
2021/12/09 05:24:52;;;;;;;54.80;21.57;;;;;;;;;;4931358;29;20043;-69
2021/12/09 05:27:19;;;;;;;50.37;21.63;;;;;;;;;;4932756;29;20044;-72
2021/12/09 05:29:46;;;;;;;47.60;22.57;;;;;;;;;;4931290;29;20059;-72
2021/12/09 05:32:13;;;;;;;51.20;21.03;;;;;;;;;;4931236;29;20069;-71
2021/12/09 05:34:48;;;;;;;46.67;21.07;;;;;;;;;;4930519;29;20036;-70
2021/12/09 05:37:22;;;;;;;45.47;20.20;;;;;;;;;;4932749;29;20047;-72
2021/12/09 05:39:49;;;;;;;49.80;20.73;;;;;;;;;;4931255;29;20030;-71
2021/12/09 05:42:17;;;;;;;52.30;20.50;;;;;;;;;;4931330;29;20503;-72
2021/12/09 05:44:43;;;;;;;47.47;20.93;;;;;;;;;;4931608;29;20385;-72
2021/12/09 05:47:09;;;;;;;50.13;20.47;;;;;;;;;;4931608;29;20023;-70
2021/12/09 05:49:38;;;;;;;49.37;21.67;;;;;;;;;;4931481;29;20058;-72
2021/12/09 05:52:05;;;;;;;46.10;19.17;;;;;;;;;;4930810;29;20023;-71
2021/12/09 05:54:31;;;;;;;52.10;20.43;;;;;;;;;;4932809;29;20253;-73
2021/12/09 05:56:58;;;;;;;51.40;20.90;;;;;;;;;;4932931;29;20034;-72
2021/12/09 05:59:25;;;;;;;46.27;20.87;;;;;;;;;;4934436;29;20079;-72
2021/12/09 06:01:51;;;;;;;52.70;21.27;;;;;;;;;;4932652;29;20035;-72
2021/12/09 06:04:16;;;;;;;52.07;22.03;;;;;;;;;;4931026;29;20038;-71
2021/12/09 06:06:42;;;;;;;68.73;35.27;;;;;;;;;;4931958;29;20027;-71
2021/12/09 06:09:09;;;;;;;54.97;24.90;;;;;;;;;;4931891;29;20031;-71
2021/12/09 06:11:38;;;;;;;56.47;22.23;;;;;;;;;;4915823;29;20035;-73
2021/12/09 06:14:06;;;;;;;55.23;22.83;;;;;;;;;;4917706;29;20046;-72
2021/12/09 06:16:32;;;;;;;56.87;23.97;;;;;;;;;;4912840;29;20035;-72
2021/12/09 06:18:57;;;;;;;57.53;23.37;;;;;;;;;;4918137;29;20099;-72
2021/12/09 06:21:27;;;;;;;55.03;21.10;;;;;;;;;;4929889;29;20036;-72
2021/12/09 06:23:53;;;;;;;57.10;24.50;;;;;;;;;;4930183;29;20043;-72
2021/12/09 06:26:20;;;;;;;56.20;23.33;;;;;;;;;;4931264;29;20432;-73
2021/12/09 06:28:45;;;;;;;60.87;23.27;;;;;;;;;;4931384;29;20034;-71
2021/12/09 06:31:11;;;;;;;63.37;25.63;;;;;;;;;;4931345;29;20027;-71
2021/12/09 06:33:37;;;;;;;57.43;23.00;;;;;;;;;;4931311;29;20111;-70
2021/12/09 06:36:03;;;;;;;51.20;22.90;;;;;;;;;;4923550;29;20066;-74
2021/12/09 06:38:29;;;;;;;55.73;23.57;;;;;;;;;;4931107;29;20046;-71
2021/12/09 06:40:54;;;;;;;58.07;24.20;;;;;;;;;;4929626;29;20035;-71
2021/12/09 06:43:22;;;;;;;65.40;23.90;;;;;;;;;;4930137;29;20023;-73
2021/12/09 06:45:48;;;;;;;66.43;24.83;;;;;;;;;;4929384;29;20030;-73
2021/12/09 06:48:14;;;;;;;55.63;24.90;;;;;;;;;;4934107;29;20058;-72
2021/12/09 06:50:39;;;;;;;65.73;27.37;;;;;;;;;;4933370;29;20074;-74
2021/12/09 06:53:06;;;;;;;63.70;26.27;;;;;;;;;;4934671;29;20039;-72
2021/12/09 06:55:31;;;;;;;57.50;25.53;;;;;;;;;;4934640;29;20031;-73
2021/12/09 06:57:57;;;;;;;57.47;24.10;;;;;;;;;;4933375;29;20042;-72
2021/12/09 07:00:26;;;;;;;59.07;25.73;;;;;;;;;;4933180;29;20043;-73
2021/12/09 07:02:53;;;;;;;52.67;22.87;;;;;;;;;;4927156;29;20520;-72
2021/12/09 07:05:21;;;;;;;52.07;22.90;;;;;;;;;;4934932;29;20063;-73
2021/12/09 07:07:48;;;;;;;52.20;21.40;;;;;;;;;;4934747;29;20457;-71
2021/12/09 07:10:14;;;;;;;50.87;23.07;;;;;;;;;;4933485;29;20039;-74
2021/12/09 07:12:40;;;;;;;57.53;23.73;;;;;;;;;;4932910;29;20045;-73
2021/12/09 07:15:11;;;;;;;52.60;22.57;;;;;;;;;;4920662;29;20318;-73
2021/12/09 07:17:37;;;;;;;52.07;22.80;;;;;;;;;;4934731;29;20036;-74
2021/12/09 07:20:05;;;;;;;61.40;21.73;;;;;;;;;;4934668;29;20036;-71
2021/12/09 07:22:31;;;;;;;53.70;21.83;;;;;;;;;;4931265;29;20064;-73
2021/12/09 07:24:58;;;;;;;51.83;22.50;;;;;;;;;;4950787;28;20758;-73
2021/12/09 07:27:24;;;;;;;50.20;21.77;;;;;;;;;;4952280;29;20122;-72
2021/12/09 07:29:49;;;;;;;61.33;27.63;;;;;;;;;;4927913;28;20131;-71
2021/12/09 07:32:15;;;;;;;56.47;23.80;;;;;;;;;;4926057;29;20056;-73
2021/12/09 07:34:41;;;;;;;48.13;20.97;;;;;;;;;;4927651;29;20040;-72
2021/12/09 07:37:06;;;;;;;62.43;25.07;;;;;;;;;;4928981;29;20039;-72
2021/12/09 07:39:33;;;;;;;53.77;22.60;;;;;;;;;;4926954;28;20487;-71
2021/12/09 07:42:00;;;;;;;52.03;21.83;;;;;;;;;;4928081;29;20742;-72
2021/12/09 07:44:30;;;;;;;51.70;23.03;;;;;;;;;;4930419;29;20100;-72
2021/12/09 07:46:57;;;;;;;54.17;20.90;;;;;;;;;;4933822;29;20039;-71
2021/12/09 07:49:24;;;;;;;55.80;24.50;;;;;;;;;;4929131;29;20028;-75
2021/12/09 07:51:50;;;;;;;54.27;24.23;;;;;;;;;;4941496;29;20036;-72
2021/12/09 07:54:16;;;;;;;54.83;23.80;;;;;;;;;;4926352;29;20039;-72
2021/12/09 07:56:42;;;;;;;62.80;23.50;;;;;;;;;;4923964;29;20040;-73
2021/12/09 07:59:08;;;;;;;62.70;24.50;;;;;;;;;;4923816;29;20066;-73
2021/12/09 08:01:34;;;;;;;56.00;23.47;;;;;;;;;;4925105;29;20441;-72
2021/12/09 08:04:01;;;;;;;58.67;24.77;;;;;;;;;;4928575;29;20407;-72
2021/12/09 08:06:27;;;;;;;59.30;25.13;;;;;;;;;;4924406;29;20031;-75
2021/12/09 08:08:53;;;;;;;57.10;25.00;;;;;;;;;;4924399;29;20046;-72
2021/12/09 08:11:19;;;;;;;63.60;23.83;;;;;;;;;;4921434;29;20388;-74
2021/12/09 08:13:46;;;;;;;60.40;25.20;;;;;;;;;;4925698;29;20066;-74
2021/12/09 08:16:12;;;;;;;53.57;23.30;;;;;;;;;;4924604;29;20471;-76
2021/12/09 08:18:55;;;;;;;60.87;26.30;;;;;;;;;;4925779;29;20142;-73
2021/12/09 08:21:24;;;;;;;59.33;24.52;;;;;;;;;;4924883;29;20036;-73
2021/12/09 08:23:51;;;;;;;64.87;25.17;;;;;;;;;;4922306;29;20095;-73
2021/12/09 08:26:18;;;;;;;50.33;24.30;;;;;;;;;;4925631;29;20028;-72
2021/12/09 08:28:44;;;;;;;57.87;25.03;;;;;;;;;;4924168;29;20083;-72
2021/12/09 08:31:09;;;;;;;62.50;25.47;;;;;;;;;;4924345;29;20400;-72
2021/12/09 08:33:35;;;;;;;63.57;23.93;;;;;;;;;;4921023;29;20610;-72
2021/12/09 08:36:01;;;;;;;58.43;23.73;;;;;;;;;;4925167;29;20575;-72
2021/12/09 08:38:29;;;;;;;54.60;23.20;;;;;;;;;;4909105;29;20091;-76
2021/12/09 08:40:56;;;;;;;55.63;23.57;;;;;;;;;;4925652;29;20036;-73
2021/12/09 08:43:23;;;;;;;62.17;26.80;;;;;;;;;;4924255;29;20809;-72
2021/12/09 08:45:50;;;;;;;57.50;25.30;;;;;;;;;;4926234;29;20035;-73
2021/12/09 08:48:17;;;;;;;59.43;24.40;;;;;;;;;;4938335;28;20035;-74
2021/12/09 08:50:44;;;;;;;64.40;26.70;;;;;;;;;;4920927;29;20039;-73
2021/12/09 08:53:14;;;;;;;55.57;24.17;;;;;;;;;;4924404;29;20028;-77
2021/12/09 08:55:40;;;;;;;63.80;24.13;;;;;;;;;;4924652;29;20090;-72
2021/12/09 08:58:08;;;;;;;54.47;23.43;;;;;;;;;;4925251;29;20031;-73
2021/12/09 09:00:35;;;;;;;62.37;24.50;;;;;;;;;;4921400;29;20038;-73
2021/12/09 09:03:06;;;;;;;68.07;25.23;;;;;;;;;;4923588;29;20028;-71
2021/12/09 09:05:34;;;;;;;69.13;28.77;;;;;;;;;;4924160;29;20042;-72
2021/12/09 09:08:00;;;;;;;57.27;24.20;;;;;;;;;;4925234;29;20031;-74
2021/12/09 09:10:35;;;;;;;56.23;25.03;;;;;;;;;;4912608;29;20484;-73
2021/12/09 09:13:03;;;;;;;58.83;24.33;;;;;;;;;;4905635;29;20398;-74
2021/12/09 09:15:31;;;;;;;68.07;26.33;;;;;;;;;;4920781;29;20027;-73
2021/12/09 09:17:57;;;;;;;58.53;26.27;;;;;;;;;;4922402;29;20542;-72
2021/12/09 09:20:27;;;;;;;57.90;26.83;;;;;;;;;;4921132;29;20031;-73
2021/12/09 09:22:53;;;;;;;64.63;25.17;;;;;;;;;;4922197;29;20420;-75
2021/12/09 09:25:28;;;;;;;59.23;25.80;;;;;;;;;;4924063;29;20032;-74
2021/12/09 09:27:54;;;;;;;60.87;24.30;;;;;;;;;;4921594;29;20114;-73
2021/12/09 09:30:20;;;;;;;58.27;25.47;;;;;;;;;;4922803;29;20043;-72
2021/12/09 09:32:47;;;;;;;51.83;23.80;;;;;;;;;;4924866;29;20034;-73
2021/12/09 09:35:13;;;;;;;57.23;24.00;;;;;;;;;;4922864;29;20052;-74
2021/12/09 09:37:39;;;;;;;59.30;25.23;;;;;;;;;;4926072;29;20036;-72
2021/12/09 09:40:13;;;;;;;55.80;23.67;;;;;;;;;;4920825;29;21308;-74
2021/12/09 09:45:08;;;;;;;55.23;23.50;;;;;;;;;;4923378;29;20684;-75
2021/12/09 09:47:33;;;;;;;55.23;24.07;;;;;;;;;;4923352;29;20062;-73
2021/12/09 09:49:59;;;;;;;52.63;23.73;;;;;;;;;;4920157;29;20440;-72
2021/12/09 09:52:26;;;;;;;56.67;24.67;;;;;;;;;;4922494;29;20028;-72
2021/12/09 09:54:54;;;;;;;56.77;24.33;;;;;;;;;;4911716;29;20087;-73
2021/12/09 09:57:21;;;;;;;58.90;24.40;;;;;;;;;;4922076;29;20495;-74
2021/12/09 09:59:47;;;;;;;65.37;25.00;;;;;;;;;;4919329;29;20027;-74
2021/12/09 10:02:13;;;;;;;62.07;25.13;;;;;;;;;;4922622;29;20381;-71
2021/12/09 10:04:48;;;;;;;50.17;23.37;;;;;;;;;;4939094;29;20451;-72
2021/12/09 10:07:17;;;;;;;60.40;26.67;;;;;;;;;;4921939;29;20043;-72
2021/12/09 10:09:43;;;;;;;56.63;23.93;;;;;;;;;;4920200;29;20031;-73
2021/12/09 10:12:09;;;;;;;60.93;24.87;;;;;;;;;;4919586;29;20031;-73
2021/12/09 10:14:38;;;;;;;57.17;24.33;;;;;;;;;;4925115;29;20046;-72
2021/12/09 10:17:08;;;;;;;55.13;25.87;;;;;;;;;;4924959;29;20795;-72
2021/12/09 10:19:46;;;;;;;63.40;26.30;;;;;;;;;;4921580;29;20042;-72
2021/12/09 10:22:22;;;;;;;60.50;26.23;;;;;;;;;;4911805;28;20138;-73
2021/12/09 10:24:52;;;;;;;64.13;25.27;;;;;;;;;;4923384;29;20027;-71
2021/12/09 10:27:28;;;;;;;63.50;26.47;;;;;;;;;;4920966;29;20036;-73
2021/12/09 10:30:03;;;;;;;61.90;25.60;;;;;;;;;;4921302;29;20031;-71
2021/12/09 10:32:33;;;;;;;65.57;25.40;;;;;;;;;;4922631;29;20043;-72
2021/12/09 10:35:11;;;;;;;64.27;27.13;;;;;;;;;;4922309;29;20087;-76
2021/12/09 10:37:40;;;;;;;55.30;25.07;;;;;;;;;;4923273;29;20088;-73
2021/12/09 10:40:18;;;;;;;72.80;27.40;;;;;;;;;;4923843;29;20032;-73
2021/12/09 10:42:48;;;;;;;61.43;25.70;;;;;;;;;;4922365;29;20036;-73
2021/12/09 10:45:38;;;;;;;54.60;23.23;;;;;;;;;;4922733;29;20032;-70
2021/12/09 10:55:59;;;;;;;64.47;27.13;;;;;;;;;;4923508;29;20049;-72
2021/12/09 10:58:30;;;;;;;59.17;25.07;;;;;;;;;;4920047;29;20046;-76
2021/12/09 11:01:16;;;;;;;62.00;24.13;;;;;;;;;;4918834;29;20159;-74
2021/12/09 11:03:43;;;;;;;68.90;28.47;;;;;;;;;;4921254;29;20032;-74
2021/12/09 11:06:14;;;;;;;65.47;27.57;;;;;;;;;;4924768;29;20142;-72
2021/12/09 11:08:52;;;;;;;62.53;25.67;;;;;;;;;;4921578;29;20055;-73
2021/12/09 11:11:56;;;;;;;57.93;25.13;;;;;;;;;;4924791;29;20103;-76
2021/12/09 11:14:27;;;;;;;68.50;25.90;;;;;;;;;;4939413;28;20482;-74
2021/12/09 11:17:03;;;;;;;56.57;24.60;;;;;;;;;;4925001;29;20412;-73
2021/12/09 11:19:38;;;;;;;57.27;24.67;;;;;;;;;;4918171;29;20114;-74
2021/12/09 11:22:08;;;;;;;57.50;23.57;;;;;;;;;;4919330;29;20039;-72
2021/12/09 11:24:39;;;;;;;60.90;25.07;;;;;;;;;;4921580;29;20539;-73
2021/12/09 11:27:09;;;;;;;64.90;25.93;;;;;;;;;;4923798;29;20540;-72
2021/12/09 11:29:45;;;;;;;65.03;27.37;;;;;;;;;;4922797;29;20094;-73
2021/12/09 11:32:36;;;;;;;61.73;25.23;;;;;;;;;;4924349;29;20050;-72
2021/12/09 11:35:17;;;;;;;59.87;25.43;;;;;;;;;;4921964;29;20460;-73
2021/12/09 11:37:56;;;;;;;60.72;25.23;;;;;;;;;;4925925;29;20028;-73
2021/12/09 11:40:49;;;;;;;54.43;24.20;;;;;;;;;;4926903;29;20556;-72
2021/12/09 11:43:13;;;;;;;58.33;24.87;;;;;;;;;;4926839;28;20047;-73
2021/12/09 11:45:48;;;;;;;56.40;25.53;;;;;;;;;;4926436;29;20077;-75
2021/12/09 11:48:15;;;;;;;51.20;22.97;;;;;;;;;;4927874;29;20042;-74
2021/12/09 11:50:43;;;;;;;65.70;26.20;;;;;;;;;;4923851;29;20503;-75
2021/12/09 11:53:19;;;;;;;53.40;25.30;;;;;;;;;;4925116;29;20090;-76
2021/12/09 11:58:28;;;;;;;61.17;25.27;;;;;;;;;;4926227;29;20028;-75
2021/12/09 12:15:25;;;;;;;66.80;25.47;;;;;;;;;;4927709;29;20452;-78
2021/12/09 12:20:48;;;;;;;62.53;25.70;;;;;;;;;;4923028;29;20641;-75
2021/12/09 12:23:50;;;;;;;68.33;28.50;;;;;;;;;;4927445;29;20039;-78
2021/12/09 12:32:17;;;;;;;61.93;27.77;;;;;;;;;;4943809;28;20031;-75
2021/12/09 12:40:42;;;;;;;65.17;27.93;;;;;;;;;;4947432;28;20463;-77
2021/12/09 12:43:16;;;;;;;66.87;27.07;;;;;;;;;;4947914;28;20233;-79
2021/12/09 12:51:24;;;;;;;;;;;;;;;;;;4946565;29;20043;-77
2021/12/09 12:53:55;;;;;;;60.23;26.13;;;;;;;;;;4940571;28;19914;-78
2021/12/09 12:56:27;;;;;;;64.57;25.83;;;;;;;;;;4945478;28;20113;-75
2021/12/09 12:59:15;;;;;;;57.67;24.67;;;;;;;;;;4949882;28;20524;-76
2021/12/09 13:01:48;;;;;;;69.30;27.40;;;;;;;;;;4941479;28;20547;-75
2021/12/09 13:04:28;;;;;;;71.87;28.73;;;;;;;;;;4945186;29;20035;-76
2021/12/09 13:07:00;;;;;;;58.53;26.90;;;;;;;;;;4944405;28;20027;-75
2021/12/09 13:09:38;;;;;;;65.30;26.42;;;;;;;;;;4944077;28;20119;-76
2021/12/09 13:12:08;;;;;;;56.57;25.60;;;;;;;;;;4940876;29;20039;-77
2021/12/09 13:14:54;;;;;;;68.70;28.53;;;;;;;;;;4945321;28;20038;-78
2021/12/09 13:17:37;;;;;;;68.03;28.37;;;;;;;;;;4945891;29;20617;-76
2021/12/09 13:20:15;;;;;;;75.70;30.43;;;;;;;;;;4941847;29;20027;-78
2021/12/09 13:22:41;;;;;;;65.17;26.30;;;;;;;;;;4942938;29;20388;-78
2021/12/09 13:25:21;;;;;;;72.43;27.37;;;;;;;;;;4943933;28;20083;-76
2021/12/09 13:27:54;;;;;;;77.90;31.93;;;;;;;;;;4945424;28;20042;-76
2021/12/09 13:30:54;;;;;;;59.97;26.53;;;;;;;;;;4943397;29;20507;-77
2021/12/09 13:33:36;;;;;;;72.23;32.30;;;;;;;;;;4943613;28;20039;-76
2021/12/09 13:36:22;;;;;;;70.45;28.85;;;;;;;;;;4942319;28;20061;-78
2021/12/09 13:47:05;;;;;;;77.47;29.37;;;;;;;;;;4944156;29;20176;-76
2021/12/09 13:54:57;;;;;;;68.93;27.73;;;;;;;;;;4944262;29;20566;-73
2021/12/09 13:57:39;;;;;;;72.43;28.70;;;;;;;;;;4944658;28;20129;-76
2021/12/09 14:00:32;;;;;;;81.95;31.63;;;;;;;;;;4941375;28;20514;-75
2021/12/09 14:03:05;;;;;;;67.87;26.90;;;;;;;;;;4944525;28;20043;-79
2021/12/09 14:05:59;;;;;;;75.83;30.17;;;;;;;;;;4944393;29;20582;-78
2021/12/09 14:08:30;;;;;;;77.67;29.90;;;;;;;;;;4943221;29;20054;-76
2021/12/09 14:11:02;;;;;;;64.97;28.90;;;;;;;;;;4938879;28;20035;-77
2021/12/09 14:13:30;;;;;;;73.50;30.70;;;;;;;;;;4942499;28;20038;-77
2021/12/09 14:16:11;;;;;;;76.03;29.53;;;;;;;;;;4945308;29;20130;-77
2021/12/09 14:21:26;;;;;;;70.67;26.57;;;;;;;;;;4944759;28;20074;-76
2021/12/09 14:24:15;;;;;;;75.23;29.43;;;;;;;;;;4943300;28;20038;-76
2021/12/09 14:26:48;;;;;;;74.80;29.67;;;;;;;;;;4932030;28;20042;-78
2021/12/09 14:29:14;;;;;;;81.77;28.83;;;;;;;;;;4942850;29;20034;-77
2021/12/09 14:31:46;;;;;;;83.80;30.30;;;;;;;;;;4945215;28;20027;-79
2021/12/09 14:34:13;;;;;;;77.50;29.70;;;;;;;;;;4949187;29;20074;-76
2021/12/09 14:36:39;;;;;;;74.23;29.60;;;;;;;;;;4949741;28;20056;-76
2021/12/09 14:39:07;;;;;;;79.17;32.00;;;;;;;;;;4950416;28;20035;-77
2021/12/09 14:41:35;;;;;;;66.23;27.63;;;;;;;;;;4950307;29;20102;-76
2021/12/09 14:44:06;;;;;;;68.67;29.70;;;;;;;;;;4950788;28;20031;-77
2021/12/09 14:46:37;;;;;;;83.68;33.72;;;;;;;;;;4946244;28;20027;-78
2021/12/09 14:49:13;;;;;;;74.20;29.23;;;;;;;;;;4941830;29;20125;-78
2021/12/09 14:51:42;;;;;;;79.30;31.07;;;;;;;;;;4949516;28;20129;-76
2021/12/09 14:54:10;;;;;;;74.33;30.13;;;;;;;;;;4943298;28;20046;-77
2021/12/09 14:56:52;;;;;;;81.40;29.63;;;;;;;;;;4943561;28;21255;-78
2021/12/09 14:59:27;;;;;;;78.75;30.30;;;;;;;;;;4942966;28;20053;-78
2021/12/09 15:02:18;;;;;;;71.07;28.60;;;;;;;;;;4945483;29;20507;-78
2021/12/09 15:04:48;;;;;;;79.17;31.50;;;;;;;;;;4943484;29;20031;-77
2021/12/09 15:07:23;;;;;;;72.70;30.33;;;;;;;;;;4945558;28;20027;-78
2021/12/09 15:10:10;;;;;;;75.37;29.27;;;;;;;;;;4944697;29;20500;-75
2021/12/09 15:12:38;;;;;;;84.23;31.27;;;;;;;;;;4945561;29;20050;-78
2021/12/09 15:15:07;;;;;;;75.07;29.63;;;;;;;;;;4943827;28;20353;-79
2021/12/09 15:17:34;;;;;;;75.33;31.53;;;;;;;;;;4952214;28;20102;-76
2021/12/09 15:20:12;;;;;;;82.60;31.63;;;;;;;;;;4949951;28;20036;-76
2021/12/09 15:22:56;;;;;;;86.47;34.67;;;;;;;;;;4951967;28;20098;-76
2021/12/09 15:25:29;;;;;;;82.03;31.40;;;;;;;;;;4950473;29;20460;-76
2021/12/09 15:28:04;;;;;;;78.60;31.80;;;;;;;;;;4952274;28;20107;-76
2021/12/09 15:30:45;;;;;;;84.40;32.53;;;;;;;;;;4963265;28;20724;-76
2021/12/09 15:33:14;;;;;;;89.53;33.57;;;;;;;;;;4936493;29;20065;-78
2021/12/09 15:35:40;;;;;;;77.67;31.27;;;;;;;;;;4948845;28;20055;-76
2021/12/09 15:38:18;;;;;;;80.20;32.83;;;;;;;;;;4952224;28;20191;-77